Time,TemperatureF,DewpointF,PressureIn,WindDirection,WindDirectionDegrees,WindSpeedMPH,WindSpeedGustMPH,Humidity,HourlyPrecipIn,Conditions,Clouds,dailyrainin,SoftwareType,DateUTC
2013-03-26 00:00:00,33.8,18.0,29.74,ENE,62,6.0,7.0,52,0.00,OVC,OVC,0.00,WeatherDisplay:10.34,2013-03-26 04:00:00,
2013-03-26 00:02:00,33.8,18.0,29.74,ENE,62,4.0,7.0,52,0.00,OVC,OVC,0.00,WeatherDisplay:10.34,2013-03-26 04:02:00,
2013-03-26 00:07:00,33.8,18.0,29.74,ESE,117,5.0,10.0,52,0.00,OVC,OVC,0.00,WeatherDisplay:10.34,2013-03-26 04:07:00,
2013-03-26 00:08:00,33.8,18.0,29.74,NE,56,5.0,10.0,52,0.00,OVC,OVC,0.00,WeatherDisplay:10.34,2013-03-26 04:08:00,
2013-03-26 00:12:00,33.8,18.0,29.74,ENE,71,5.0,13.0,52,0.00,OVC,OVC,0.00,WeatherDisplay:10.34,2013-03-26 04:12:00,
2013-03-26 00:17:00,33.8,18.0,29.74,NE,55,3.0,5.0,52,0.00,OVC,OVC,0.00,WeatherDisplay:10.34,2013-03-26 04:17:00,
2013-03-26 00:22:00,33.8,18.0,29.74,East,95,5.0,9.0,52,0.00,OVC,OVC,0.00,WeatherDisplay:10.34,2013-03-26 04:22:00,
2013-03-26 00:27:00,33.8,18.0,29.74,NE,52,6.0,9.0,52,0.00,OVC,OVC,0.00,WeatherDisplay:10.34,2013-03-26 04:27:00,
2013-03-26 00:33:00,33.6,18.3,29.74,NE,56,7.0,9.0,53,0.00,OVC,OVC,0.00,WeatherDisplay:10.34,2013-03-26 04:33:00,
2013-03-26 00:38:00,33.6,18.3,29.74,ENE,65,3.0,6.0,53,0.00,OVC,OVC,0.00,WeatherDisplay:10.34,2013-03-26 04:38:00,
2013-03-26 00:43:00,33.4,18.6,29.74,ENE,65,4.0,6.0,54,0.00,OVC,OVC,0.00,WeatherDisplay:10.34,2013-03-26 04:43:00,
2013-03-26 00:48:00,33.3,18.8,29.77,ENE,65,8.0,12.0,55,0.00,OVC,OVC,0.00,WeatherDisplay:10.34,2013-03-26 04:48:00,
2013-03-26 00:53:00,33.3,19.2,29.77,NE,40,3.0,7.0,56,0.00,OVC,OVC,0.00,WeatherDisplay:10.34,2013-03-26 04:53:00,
2013-03-26 00:58:00,33.3,19.2,29.77,NE,38,3.0,7.0,56,0.00,OVC,OVC,0.00,WeatherDisplay:10.34,2013-03-26 04:58:00,
2013-03-26 01:03:00,33.3,19.7,29.77,NNE,22,0.0,2.0,57,0.00,BKN,BKN,0.00,WeatherDisplay:10.34,2013-03-26 05:03:00,
2013-03-26 01:08:00,33.1,19.9,29.77,East,90,3.0,6.0,58,0.00,BKN,BKN,0.00,WeatherDisplay:10.34,2013-03-26 05:08:00,
2013-03-26 01:13:00,33.1,19.9,29.77,NE,54,4.0,6.0,58,0.00,BKN,BKN,0.00,WeatherDisplay:10.34,2013-03-26 05:13:00,
2013-03-26 01:18:00,33.1,20.3,29.77,North,6,5.0,8.0,59,0.00,BKN,BKN,0.00,WeatherDisplay:10.34,2013-03-26 05:18:00,
2013-03-26 01:23:00,33.1,20.7,29.77,North,0,3.0,7.0,60,0.00,BKN,BKN,0.00,WeatherDisplay:10.34,2013-03-26 05:23:00,
2013-03-26 01:28:00,33.1,20.7,29.77,NNE,19,3.0,6.0,60,0.00,BKN,BKN,0.00,WeatherDisplay:10.34,2013-03-26 05:28:00,
2013-03-26 01:33:00,33.1,20.7,29.74,ENE,70,0.0,3.0,60,0.00,BKN,BKN,0.00,WeatherDisplay:10.34,2013-03-26 05:33:00,
2013-03-26 01:38:00,32.9,20.1,29.74,East,83,3.0,5.0,59,0.00,BKN,BKN,0.00,WeatherDisplay:10.34,2013-03-26 05:38:00,
2013-03-26 01:43:00,32.9,19.7,29.74,ENE,69,3.0,0.0,58,0.00,BKN,BKN,0.00,WeatherDisplay:10.34,2013-03-26 05:43:00,
2013-03-26 01:48:00,33.1,19.9,29.74,ENE,70,0.0,0.0,58,0.00,BKN,BKN,0.00,WeatherDisplay:10.34,2013-03-26 05:48:00,
2013-03-26 01:53:00,33.1,19.9,29.74,ENE,70,0.0,3.0,58,0.00,BKN,BKN,0.00,WeatherDisplay:10.34,2013-03-26 05:53:00,
2013-03-26 01:58:00,33.1,19.5,29.74,ENE,69,3.0,5.0,57,0.00,BKN,BKN,0.00,WeatherDisplay:10.34,2013-03-26 05:58:00,
2013-03-26 02:03:00,33.1,19.5,29.74,NNE,15,3.0,10.0,57,0.00,OVC,OVC,0.00,WeatherDisplay:10.34,2013-03-26 06:03:00,
2013-03-26 02:08:00,33.1,19.5,29.74,ENE,68,4.0,6.0,57,0.00,OVC,OVC,0.00,WeatherDisplay:10.34,2013-03-26 06:08:00,
2013-03-26 02:13:00,33.1,19.5,29.74,NE,45,0.0,3.0,57,0.00,OVC,OVC,0.00,WeatherDisplay:10.34,2013-03-26 06:13:00,
2013-03-26 02:18:00,32.9,19.3,29.74,ENE,62,4.0,8.0,57,0.00,OVC,OVC,0.00,WeatherDisplay:10.34,2013-03-26 06:18:00,
2013-03-26 02:23:00,32.7,19.1,29.74,East,92,5.0,8.0,57,0.00,OVC,OVC,0.00,WeatherDisplay:10.34,2013-03-26 06:23:00,
2013-03-26 02:28:00,32.7,19.1,29.74,ENE,58,4.0,5.0,57,0.00,OVC,OVC,0.00,WeatherDisplay:10.34,2013-03-26 06:28:00,
2013-03-26 02:33:00,32.9,19.3,29.74,NNE,33,3.0,0.0,57,0.00,OVC,OVC,0.00,WeatherDisplay:10.34,2013-03-26 06:33:00,
2013-03-26 02:38:00,33.1,19.1,29.74,ENE,59,0.0,0.0,56,0.00,OVC,OVC,0.00,WeatherDisplay:10.34,2013-03-26 06:38:00,
2013-03-26 02:44:00,33.1,19.1,29.74,ENE,59,0.0,3.0,56,0.00,OVC,OVC,0.00,WeatherDisplay:10.34,2013-03-26 06:44:00,
2013-03-26 02:50:00,33.1,19.1,29.74,ENE,57,0.0,3.0,56,0.00,OVC,OVC,0.00,WeatherDisplay:10.34,2013-03-26 06:50:00,
2013-03-26 02:55:00,33.1,19.1,29.74,ENE,63,0.0,0.0,56,0.00,OVC,OVC,0.00,WeatherDisplay:10.34,2013-03-26 06:55:00,
2013-03-26 03:00:00,32.9,18.5,29.74,NNE,32,4.0,8.0,55,0.00,OVC,OVC,0.00,WeatherDisplay:10.34,2013-03-26 07:00:00,
2013-03-26 03:06:00,32.9,18.5,29.74,North,2,0.0,7.0,55,0.00,OVC,OVC,0.00,WeatherDisplay:10.34,2013-03-26 07:06:00,
2013-03-26 03:12:00,33.1,18.7,29.74,NNE,31,4.0,9.0,55,0.00,OVC,OVC,0.00,WeatherDisplay:10.34,2013-03-26 07:12:00,
2013-03-26 03:17:00,32.9,18.5,29.74,ENE,69,3.0,7.0,55,0.00,OVC,OVC,0.00,WeatherDisplay:10.34,2013-03-26 07:17:00,
2013-03-26 03:22:00,32.9,18.5,29.74,ENE,65,5.0,9.0,55,0.00,OVC,OVC,0.00,WeatherDisplay:10.34,2013-03-26 07:22:00,
2013-03-26 03:27:00,32.7,17.9,29.74,NNE,17,4.0,10.0,54,0.00,OVC,OVC,0.00,WeatherDisplay:10.34,2013-03-26 07:27:00,
2013-03-26 03:32:00,32.7,17.9,29.74,ENE,57,3.0,3.0,54,0.00,OVC,OVC,0.00,WeatherDisplay:10.34,2013-03-26 07:32:00,
2013-03-26 03:37:00,32.7,18.3,29.74,NNE,29,4.0,10.0,55,0.00,OVC,OVC,0.00,WeatherDisplay:10.34,2013-03-26 07:37:00,
2013-03-26 03:42:00,32.7,18.3,29.74,North,6,4.0,6.0,55,0.00,OVC,OVC,0.00,WeatherDisplay:10.34,2013-03-26 07:42:00,
2013-03-26 03:47:00,32.5,17.7,29.74,ENE,63,3.0,7.0,54,0.00,OVC,OVC,0.00,WeatherDisplay:10.34,2013-03-26 07:47:00,
2013-03-26 03:52:00,32.4,17.6,29.74,ENE,66,4.0,7.0,54,0.00,OVC,OVC,0.00,WeatherDisplay:10.34,2013-03-26 07:52:00,
2013-03-26 03:57:00,32.4,17.1,29.74,ENE,62,7.0,10.0,53,0.00,OVC,OVC,0.00,WeatherDisplay:10.34,2013-03-26 07:57:00,
2013-03-26 04:02:00,32.2,16.9,29.74,ENE,69,5.0,8.0,53,0.00,OVC,OVC,0.00,WeatherDisplay:10.34,2013-03-26 08:02:00,
2013-03-26 04:07:00,32.2,16.9,29.74,ENE,64,6.0,9.0,53,0.00,OVC,OVC,0.00,WeatherDisplay:10.34,2013-03-26 08:07:00,
2013-03-26 04:12:00,32.0,16.8,29.74,NE,47,7.0,7.0,53,0.00,OVC,OVC,0.00,WeatherDisplay:10.34,2013-03-26 08:12:00,
2013-03-26 04:17:00,32.0,16.8,29.74,NNE,30,4.0,7.0,53,0.00,OVC,OVC,0.00,WeatherDisplay:10.34,2013-03-26 08:17:00,
2013-03-26 04:22:00,32.0,16.8,29.74,NNE,28,3.0,10.0,53,0.00,OVC,OVC,0.00,WeatherDisplay:10.34,2013-03-26 08:22:00,
2013-03-26 04:27:00,31.8,16.6,29.75,NE,43,7.0,10.0,53,0.00,OVC,OVC,0.00,WeatherDisplay:10.34,2013-03-26 08:27:00,
2013-03-26 04:33:00,31.8,16.6,29.75,NNE,23,3.0,8.0,53,0.00,OVC,OVC,0.00,WeatherDisplay:10.34,2013-03-26 08:33:00,
2013-03-26 04:38:00,31.6,16.4,29.75,NE,49,5.0,7.0,53,0.00,OVC,OVC,0.00,WeatherDisplay:10.34,2013-03-26 08:38:00,
2013-03-26 04:43:00,31.6,16.4,29.75,ENE,67,3.0,7.0,53,0.00,OVC,OVC,0.00,WeatherDisplay:10.34,2013-03-26 08:43:00,
2013-03-26 04:48:00,31.6,16.4,29.75,NE,45,3.0,6.0,53,0.00,OVC,OVC,0.00,WeatherDisplay:10.34,2013-03-26 08:48:00,
2013-03-26 04:53:00,31.6,16.4,29.75,ENE,72,3.0,7.0,53,0.00,OVC,OVC,0.00,WeatherDisplay:10.34,2013-03-26 08:53:00,
2013-03-26 04:58:00,31.6,16.4,29.75,ENE,72,0.0,2.0,53,0.00,OVC,OVC,0.00,WeatherDisplay:10.34,2013-03-26 08:58:00,
2013-03-26 05:03:00,31.6,16.4,29.75,ENE,72,0.0,5.0,53,0.00,OVC,OVC,0.00,WeatherDisplay:10.34,2013-03-26 09:03:00,
2013-03-26 05:08:00,31.6,16.4,29.75,ENE,68,0.0,0.0,53,0.00,OVC,OVC,0.00,WeatherDisplay:10.34,2013-03-26 09:08:00,
2013-03-26 05:13:00,31.6,16.4,29.75,NNE,33,4.0,9.0,53,0.00,OVC,OVC,0.00,WeatherDisplay:10.34,2013-03-26 09:13:00,
2013-03-26 05:18:00,31.3,16.1,29.75,NE,50,0.0,2.0,53,0.00,OVC,OVC,0.00,WeatherDisplay:10.34,2013-03-26 09:18:00,
2013-03-26 05:24:00,31.3,15.7,29.75,ENE,78,4.0,6.0,52,0.00,OVC,OVC,0.00,WeatherDisplay:10.34,2013-03-26 09:24:00,
2013-03-26 05:29:00,31.1,15.9,29.75,East,82,5.0,8.0,53,0.00,OVC,OVC,0.00,WeatherDisplay:10.34,2013-03-26 09:29:00,
2013-03-26 05:34:00,31.1,15.5,29.75,ENE,58,0.0,3.0,52,0.00,OVC,OVC,0.00,WeatherDisplay:10.34,2013-03-26 09:34:00,
2013-03-26 05:39:00,31.3,15.7,29.75,NE,51,3.0,5.0,52,0.00,OVC,OVC,0.00,WeatherDisplay:10.34,2013-03-26 09:39:00,
2013-03-26 05:44:00,31.1,15.5,29.75,NNE,18,3.0,6.0,52,0.00,OVC,OVC,0.00,WeatherDisplay:10.34,2013-03-26 09:44:00,
2013-03-26 05:49:00,31.3,15.7,29.78,ENE,62,0.0,5.0,52,0.00,OVC,OVC,0.00,WeatherDisplay:10.34,2013-03-26 09:49:00,
2013-03-26 05:54:00,31.1,15.1,29.78,East,84,4.0,4.0,51,0.00,OVC,OVC,0.00,WeatherDisplay:10.34,2013-03-26 09:54:00,
2013-03-26 05:59:00,31.1,15.1,29.78,ESE,102,5.0,10.0,51,0.00,OVC,OVC,0.00,WeatherDisplay:10.34,2013-03-26 09:59:00,
2013-03-26 06:04:00,31.1,15.1,29.78,NE,50,3.0,5.0,51,0.00,OVC,OVC,0.00,WeatherDisplay:10.34,2013-03-26 10:04:00,
2013-03-26 06:09:00,30.9,14.4,29.78,NNE,19,4.0,7.0,50,0.00,OVC,OVC,0.00,WeatherDisplay:10.34,2013-03-26 10:09:00,
2013-03-26 06:14:00,30.9,14.9,29.78,NNE,28,3.0,6.0,51,0.00,OVC,OVC,0.00,WeatherDisplay:10.34,2013-03-26 10:14:00,
2013-03-26 06:19:00,30.9,14.4,29.78,NE,43,3.0,6.0,50,0.00,OVC,OVC,0.00,WeatherDisplay:10.34,2013-03-26 10:19:00,
2013-03-26 06:24:00,30.9,14.9,29.78,NE,39,0.0,3.0,51,0.00,OVC,OVC,0.00,WeatherDisplay:10.34,2013-03-26 10:24:00,
2013-03-26 06:29:00,30.9,14.9,29.78,NNE,22,3.0,5.0,51,0.00,OVC,OVC,0.00,WeatherDisplay:10.34,2013-03-26 10:29:00,
2013-03-26 06:34:00,30.9,14.9,29.78,NNE,28,0.0,0.0,51,0.00,OVC,OVC,0.00,WeatherDisplay:10.34,2013-03-26 10:34:00,
2013-03-26 06:39:00,30.9,14.4,29.78,NE,50,0.0,3.0,50,0.00,OVC,OVC,0.00,WeatherDisplay:10.34,2013-03-26 10:39:00,
2013-03-26 06:44:00,30.7,13.8,29.78,East,79,0.0,3.0,49,0.00,OVC,OVC,0.00,WeatherDisplay:10.34,2013-03-26 10:44:00,
2013-03-26 06:49:00,30.9,14.0,29.78,ENE,71,4.0,5.0,49,0.00,OVC,OVC,0.00,WeatherDisplay:10.34,2013-03-26 10:49:00,
2013-03-26 06:54:00,30.9,14.0,29.78,NNW,340,4.0,9.0,49,0.00,OVC,OVC,0.00,WeatherDisplay:10.34,2013-03-26 10:54:00,
2013-03-26 06:59:00,30.9,14.0,29.78,NE,55,0.0,6.0,49,0.00,OVC,OVC,0.00,WeatherDisplay:10.34,2013-03-26 10:59:00,
2013-03-26 07:04:00,30.9,13.5,29.81,NE,38,4.0,7.0,48,0.00,BKN,BKN,0.00,WeatherDisplay:10.34,2013-03-26 11:04:00,
2013-03-26 07:09:00,31.1,13.7,29.81,ENE,70,6.0,9.0,48,0.00,BKN,BKN,0.00,WeatherDisplay:10.34,2013-03-26 11:09:00,
2013-03-26 07:14:00,31.1,13.2,29.81,North,9,7.0,12.0,47,0.00,BKN,BKN,0.00,WeatherDisplay:10.34,2013-03-26 11:14:00,
2013-03-26 07:19:00,31.3,13.4,29.81,North,9,9.0,15.0,47,0.00,BKN,BKN,0.00,WeatherDisplay:10.34,2013-03-26 11:19:00,
2013-03-26 07:24:00,31.3,13.4,29.81,NNE,23,0.0,3.0,47,0.00,BKN,BKN,0.00,WeatherDisplay:10.34,2013-03-26 11:24:00,
2013-03-26 07:30:00,31.5,13.0,29.81,NNE,32,3.0,5.0,46,0.00,BKN,BKN,0.00,WeatherDisplay:10.34,2013-03-26 11:30:00,
2013-03-26 07:35:00,31.6,13.7,29.81,North,10,0.0,6.0,47,0.00,BKN,BKN,0.00,WeatherDisplay:10.34,2013-03-26 11:35:00,
2013-03-26 07:40:00,32.0,14.0,29.81,NNE,32,3.0,8.0,47,0.00,BKN,BKN,0.00,WeatherDisplay:10.34,2013-03-26 11:40:00,
2013-03-26 07:45:00,32.2,14.2,29.81,North,351,0.0,0.0,47,0.00,BKN,BKN,0.00,WeatherDisplay:10.34,2013-03-26 11:45:00,
2013-03-26 07:50:00,32.2,13.7,29.81,NNE,33,0.0,0.0,46,0.00,BKN,BKN,0.00,WeatherDisplay:10.34,2013-03-26 11:50:00,
2013-03-26 07:55:00,32.5,14.5,29.81,North,4,3.0,6.0,47,0.00,BKN,BKN,0.00,WeatherDisplay:10.34,2013-03-26 11:55:00,
2013-03-26 08:00:00,32.5,14.0,29.81,NE,42,0.0,6.0,46,0.00,BKN,BKN,0.00,WeatherDisplay:10.34,2013-03-26 12:00:00,
2013-03-26 08:05:00,32.5,14.0,29.81,ENE,72,0.0,6.0,46,0.00,CLR,CLR,0.00,WeatherDisplay:10.34,2013-03-26 12:05:00,
2013-03-26 08:10:00,32.7,13.7,29.81,East,80,0.0,0.0,45,0.00,CLR,CLR,0.00,WeatherDisplay:10.34,2013-03-26 12:10:00,
2013-03-26 08:15:00,32.7,13.7,29.81,North,3,0.0,3.0,45,0.00,CLR,CLR,0.00,WeatherDisplay:10.34,2013-03-26 12:15:00,
2013-03-26 08:20:00,32.9,13.9,29.81,NNE,15,0.0,3.0,45,0.00,CLR,CLR,0.00,WeatherDisplay:10.34,2013-03-26 12:20:00,
2013-03-26 08:25:00,33.1,13.5,29.81,North,0,7.0,13.0,44,0.00,CLR,CLR,0.00,WeatherDisplay:10.34,2013-03-26 12:25:00,
2013-03-26 08:30:00,33.1,13.0,29.81,North,351,0.0,3.0,43,0.00,CLR,CLR,0.00,WeatherDisplay:10.34,2013-03-26 12:30:00,
2013-03-26 08:35:00,33.3,12.6,29.81,ENE,69,5.0,8.0,42,0.00,CLR,CLR,0.00,WeatherDisplay:10.34,2013-03-26 12:35:00,
2013-03-26 08:40:00,33.3,12.6,29.81,North,7,8.0,17.0,42,0.00,CLR,CLR,0.00,WeatherDisplay:10.34,2013-03-26 12:40:00,
2013-03-26 08:45:00,33.3,12.1,29.81,ENE,73,7.0,12.0,41,0.00,CLR,CLR,0.00,WeatherDisplay:10.34,2013-03-26 12:45:00,
2013-03-26 08:50:00,33.4,12.2,29.81,ENE,71,7.0,15.0,41,0.00,CLR,CLR,0.00,WeatherDisplay:10.34,2013-03-26 12:50:00,
2013-03-26 08:55:00,33.6,12.4,29.81,ESE,121,6.0,9.0,41,0.00,CLR,CLR,0.00,WeatherDisplay:10.34,2013-03-26 12:55:00,
2013-03-26 09:00:00,33.8,12.6,29.81,North,4,4.0,8.0,41,0.00,CLR,CLR,0.00,WeatherDisplay:10.34,2013-03-26 13:00:00,
2013-03-26 09:06:00,34.0,12.7,29.81,ESE,108,4.0,8.0,41,0.00,CLR,CLR,0.00,WeatherDisplay:10.34,2013-03-26 13:06:00,
2013-03-26 09:12:00,34.0,12.7,29.81,NNW,332,7.0,13.0,41,0.00,CLR,CLR,0.00,WeatherDisplay:10.34,2013-03-26 13:12:00,
2013-03-26 09:17:00,34.3,13.0,29.84,NE,44,3.0,6.0,41,0.00,CLR,CLR,0.00,WeatherDisplay:10.34,2013-03-26 13:17:00,
2013-03-26 09:22:00,34.3,13.0,29.84,ENE,68,4.0,7.0,41,0.00,CLR,CLR,0.00,WeatherDisplay:10.34,2013-03-26 13:22:00,
2013-03-26 09:27:00,34.3,12.5,29.84,NE,51,6.0,13.0,40,0.00,CLR,CLR,0.00,WeatherDisplay:10.34,2013-03-26 13:27:00,
2013-03-26 09:32:00,34.5,12.6,29.84,ENE,64,3.0,6.0,40,0.00,CLR,CLR,0.00,WeatherDisplay:10.34,2013-03-26 13:32:00,
2013-03-26 09:37:00,34.9,13.0,29.84,East,94,4.0,7.0,40,0.00,CLR,CLR,0.00,WeatherDisplay:10.34,2013-03-26 13:37:00,
2013-03-26 09:42:00,34.9,13.0,29.84,NNE,13,11.0,14.0,40,0.00,CLR,CLR,0.00,WeatherDisplay:10.34,2013-03-26 13:42:00,
2013-03-26 09:47:00,34.9,13.0,29.84,North,351,6.0,13.0,40,0.00,CLR,CLR,0.00,WeatherDisplay:10.34,2013-03-26 13:47:00,
2013-03-26 09:52:00,35.1,13.1,29.84,NNE,27,7.0,13.0,40,0.00,CLR,CLR,0.00,WeatherDisplay:10.34,2013-03-26 13:52:00,
2013-03-26 09:57:00,35.1,13.1,29.84,North,8,8.0,15.0,40,0.00,CLR,CLR,0.00,WeatherDisplay:10.34,2013-03-26 13:57:00,
2013-03-26 10:02:00,35.4,13.5,29.84,ENE,60,4.0,8.0,40,0.00,FEW,FEW,0.00,WeatherDisplay:10.34,2013-03-26 14:02:00,
2013-03-26 10:07:00,35.6,13.6,29.84,NNE,21,4.0,9.0,40,0.00,FEW,FEW,0.00,WeatherDisplay:10.34,2013-03-26 14:07:00,
2013-03-26 10:12:00,36.0,13.9,29.84,NNE,19,3.0,3.0,40,0.00,FEW,FEW,0.00,WeatherDisplay:10.34,2013-03-26 14:12:00,
2013-03-26 10:17:00,36.3,14.3,29.84,ENE,76,6.0,13.0,40,0.00,FEW,FEW,0.00,WeatherDisplay:10.34,2013-03-26 14:17:00,
2013-03-26 10:23:00,36.7,14.0,29.84,NE,51,5.0,12.0,39,0.00,FEW,FEW,0.00,WeatherDisplay:10.34,2013-03-26 14:23:00,
2013-03-26 10:28:00,36.9,14.2,29.84,ESE,107,5.0,9.0,39,0.00,FEW,FEW,0.00,WeatherDisplay:10.34,2013-03-26 14:28:00,
2013-03-26 10:33:00,37.0,14.3,29.84,NNW,346,7.0,9.0,39,0.00,FEW,FEW,0.00,WeatherDisplay:10.34,2013-03-26 14:33:00,
2013-03-26 10:38:00,37.2,13.9,29.83,NE,50,4.0,6.0,38,0.00,FEW,FEW,0.00,WeatherDisplay:10.34,2013-03-26 14:38:00,
2013-03-26 10:43:00,37.6,14.2,29.83,ESE,107,4.0,7.0,38,0.00,FEW,FEW,0.00,WeatherDisplay:10.34,2013-03-26 14:43:00,
2013-03-26 10:48:00,37.6,13.6,29.83,East,85,3.0,5.0,37,0.00,FEW,FEW,0.00,WeatherDisplay:10.34,2013-03-26 14:48:00,
2013-03-26 10:53:00,37.9,13.9,29.83,ENE,64,5.0,9.0,37,0.00,FEW,FEW,0.00,WeatherDisplay:10.34,2013-03-26 14:53:00,
2013-03-26 10:58:00,37.9,13.3,29.83,East,94,4.0,8.0,36,0.00,FEW,FEW,0.00,WeatherDisplay:10.34,2013-03-26 14:58:00,
2013-03-26 11:03:00,38.5,13.8,29.83,ESE,123,4.0,6.0,36,0.00,CLR,CLR,0.00,WeatherDisplay:10.34,2013-03-26 15:03:00,
2013-03-26 11:08:00,38.5,13.8,29.83,North,351,4.0,6.0,36,0.00,CLR,CLR,0.00,WeatherDisplay:10.34,2013-03-26 15:08:00,
2013-03-26 11:13:00,38.7,13.3,29.83,ENE,62,7.0,12.0,35,0.00,CLR,CLR,0.00,WeatherDisplay:10.34,2013-03-26 15:13:00,
2013-03-26 11:18:00,38.8,12.8,29.83,North,356,4.0,7.0,34,0.00,CLR,CLR,0.00,WeatherDisplay:10.34,2013-03-26 15:18:00,
2013-03-26 11:23:00,39.0,13.6,29.83,NNE,17,5.0,7.0,35,0.00,CLR,CLR,0.00,WeatherDisplay:10.34,2013-03-26 15:23:00,
2013-03-26 11:28:00,39.4,14.0,29.83,NE,45,4.0,7.0,35,0.00,CLR,CLR,0.00,WeatherDisplay:10.34,2013-03-26 15:28:00,
2013-03-26 11:33:00,39.4,12.6,29.83,NNW,347,3.0,7.0,33,0.00,CLR,CLR,0.00,WeatherDisplay:10.34,2013-03-26 15:33:00,
2013-03-26 11:38:00,39.5,13.4,29.83,East,81,5.0,12.0,34,0.00,CLR,CLR,0.00,WeatherDisplay:10.34,2013-03-26 15:38:00,
2013-03-26 11:43:00,39.7,12.9,29.83,ESE,112,6.0,9.0,33,0.00,CLR,CLR,0.00,WeatherDisplay:10.34,2013-03-26 15:43:00,
2013-03-26 11:48:00,39.9,13.1,29.83,NE,39,4.0,8.0,33,0.00,CLR,CLR,0.00,WeatherDisplay:10.34,2013-03-26 15:48:00,
2013-03-26 11:53:00,39.9,13.1,29.83,NNE,14,5.0,7.0,33,0.00,CLR,CLR,0.00,WeatherDisplay:10.34,2013-03-26 15:53:00,
2013-03-26 11:58:00,40.2,13.3,29.83,NE,48,7.0,8.0,33,0.00,CLR,CLR,0.00,WeatherDisplay:10.34,2013-03-26 15:58:00,
2013-03-26 12:03:00,40.4,12.9,29.83,East,82,4.0,7.0,32,0.00,FEW,FEW,0.00,WeatherDisplay:10.34,2013-03-26 16:03:00,
2013-03-26 12:09:00,40.6,12.3,29.83,SE,131,4.0,7.0,31,0.00,FEW,FEW,0.00,WeatherDisplay:10.34,2013-03-26 16:09:00,
2013-03-26 12:14:00,40.6,13.0,29.83,NW,314,5.0,7.0,32,0.00,FEW,FEW,0.00,WeatherDisplay:10.34,2013-03-26 16:14:00,
2013-03-26 12:19:00,40.8,12.5,29.83,East,92,6.0,12.0,31,0.00,FEW,FEW,0.00,WeatherDisplay:10.34,2013-03-26 16:19:00,
2013-03-26 12:24:00,41.1,13.4,29.83,ENE,74,3.0,3.0,32,0.00,FEW,FEW,0.00,WeatherDisplay:10.34,2013-03-26 16:24:00,
2013-03-26 12:29:00,41.3,12.9,29.83,North,351,3.0,6.0,31,0.00,FEW,FEW,0.00,WeatherDisplay:10.34,2013-03-26 16:29:00,
2013-03-26 12:34:00,41.5,13.1,29.83,ENE,78,4.0,7.0,31,0.00,FEW,FEW,0.00,WeatherDisplay:10.34,2013-03-26 16:34:00,
2013-03-26 12:39:00,41.5,13.8,29.83,ENE,63,6.0,7.0,32,0.00,FEW,FEW,0.00,WeatherDisplay:10.34,2013-03-26 16:39:00,
2013-03-26 12:44:00,41.7,13.3,29.83,NNE,24,0.0,9.0,31,0.00,FEW,FEW,0.00,WeatherDisplay:10.34,2013-03-26 16:44:00,
2013-03-26 12:50:00,41.7,14.0,29.83,NNW,346,4.0,7.0,32,0.00,FEW,FEW,0.00,WeatherDisplay:10.34,2013-03-26 16:50:00,
2013-03-26 12:57:00,41.9,13.4,29.83,NNE,19,0.0,3.0,31,0.00,FEW,FEW,0.00,WeatherDisplay:10.34,2013-03-26 16:57:00,
2013-03-26 13:02:00,41.9,13.4,29.83,NNE,18,0.0,2.0,31,0.00,CLR,CLR,0.00,WeatherDisplay:10.34,2013-03-26 17:02:00,
2013-03-26 13:07:00,42.4,13.1,29.83,North,10,3.0,5.0,30,0.00,CLR,CLR,0.00,WeatherDisplay:10.34,2013-03-26 17:07:00,
2013-03-26 13:12:00,42.4,13.1,29.83,NNE,21,3.0,7.0,30,0.00,CLR,CLR,0.00,WeatherDisplay:10.34,2013-03-26 17:12:00,
2013-03-26 13:17:00,42.8,13.5,29.83,NE,38,4.0,8.0,30,0.00,CLR,CLR,0.00,WeatherDisplay:10.34,2013-03-26 17:17:00,
2013-03-26 13:22:00,43.0,13.6,29.83,NNE,22,3.0,5.0,30,0.00,CLR,CLR,0.00,WeatherDisplay:10.34,2013-03-26 17:22:00,
2013-03-26 13:27:00,42.8,13.5,29.83,East,89,3.0,7.0,30,0.00,CLR,CLR,0.00,WeatherDisplay:10.34,2013-03-26 17:27:00,
2013-03-26 13:32:00,43.0,12.8,29.83,East,88,4.0,7.0,29,0.00,CLR,CLR,0.00,WeatherDisplay:10.34,2013-03-26 17:32:00,
2013-03-26 13:37:00,43.2,13.0,29.83,East,95,4.0,6.0,29,0.00,CLR,CLR,0.00,WeatherDisplay:10.34,2013-03-26 17:37:00,
2013-03-26 13:42:00,43.3,13.9,29.83,North,6,3.0,7.0,30,0.00,CLR,CLR,0.00,WeatherDisplay:10.34,2013-03-26 17:42:00,
2013-03-26 13:48:00,43.7,14.2,29.83,ENE,65,0.0,2.0,30,0.00,CLR,CLR,0.00,WeatherDisplay:10.34,2013-03-26 17:48:00,
2013-03-26 13:53:00,43.9,14.4,29.83,North,351,4.0,5.0,30,0.00,CLR,CLR,0.00,WeatherDisplay:10.34,2013-03-26 17:53:00,
2013-03-26 13:58:00,44.2,14.7,29.83,NNE,15,3.0,6.0,30,0.00,CLR,CLR,0.00,WeatherDisplay:10.34,2013-03-26 17:58:00,
2013-03-26 14:03:00,44.2,14.7,29.80,North,351,4.0,5.0,30,0.00,CLR,CLR,0.00,WeatherDisplay:10.34,2013-03-26 18:03:00,
2013-03-26 14:08:00,44.1,13.8,29.80,ENE,60,5.0,9.0,29,0.00,CLR,CLR,0.00,WeatherDisplay:10.34,2013-03-26 18:08:00,
2013-03-26 14:13:00,43.9,14.4,29.80,West,275,0.0,3.0,30,0.00,CLR,CLR,0.00,WeatherDisplay:10.34,2013-03-26 18:13:00,
2013-03-26 14:18:00,43.7,13.5,29.80,NE,48,0.0,3.0,29,0.00,CLR,CLR,0.00,WeatherDisplay:10.34,2013-03-26 18:18:00,
2013-03-26 14:23:00,43.9,13.6,29.80,North,351,3.0,8.0,29,0.00,CLR,CLR,0.00,WeatherDisplay:10.34,2013-03-26 18:23:00,
2013-03-26 14:28:00,43.7,13.5,29.80,SW,225,4.0,8.0,29,0.00,CLR,CLR,0.00,WeatherDisplay:10.34,2013-03-26 18:28:00,
2013-03-26 14:33:00,43.3,13.9,29.80,WSW,253,6.0,8.0,30,0.00,CLR,CLR,0.00,WeatherDisplay:10.34,2013-03-26 18:33:00,
2013-03-26 14:39:00,44.1,13.8,29.80,North,351,3.0,0.0,29,0.00,CLR,CLR,0.00,WeatherDisplay:10.34,2013-03-26 18:39:00,
2013-03-26 14:44:00,44.6,14.3,29.80,West,265,4.0,6.0,29,0.00,CLR,CLR,0.00,WeatherDisplay:10.34,2013-03-26 18:44:00,
2013-03-26 14:49:00,44.8,14.4,29.80,NNE,28,4.0,7.0,29,0.00,CLR,CLR,0.00,WeatherDisplay:10.34,2013-03-26 18:49:00,
2013-03-26 14:54:00,45.0,14.6,29.80,North,351,4.0,6.0,29,0.00,CLR,CLR,0.00,WeatherDisplay:10.34,2013-03-26 18:54:00,
2013-03-26 14:59:00,45.1,14.7,29.80,NNW,347,6.0,12.0,29,0.00,CLR,CLR,0.00,WeatherDisplay:10.34,2013-03-26 18:59:00,
2013-03-26 15:04:00,45.1,14.7,29.80,SW,235,4.0,7.0,29,0.00,CLR,CLR,0.00,WeatherDisplay:10.34,2013-03-26 19:04:00,
2013-03-26 15:09:00,45.0,14.6,29.80,NE,38,5.0,10.0,29,0.00,CLR,CLR,0.00,WeatherDisplay:10.34,2013-03-26 19:09:00,
2013-03-26 15:14:00,45.1,14.7,29.80,North,351,4.0,6.0,29,0.00,CLR,CLR,0.00,WeatherDisplay:10.34,2013-03-26 19:14:00,
2013-03-26 15:19:00,45.1,14.7,29.80,East,82,3.0,6.0,29,0.00,CLR,CLR,0.00,WeatherDisplay:10.34,2013-03-26 19:19:00,
2013-03-26 15:24:00,44.8,14.4,29.80,NE,47,7.0,7.0,29,0.00,CLR,CLR,0.00,WeatherDisplay:10.34,2013-03-26 19:24:00,
2013-03-26 15:29:00,44.6,14.3,29.80,East,100,6.0,9.0,29,0.00,CLR,CLR,0.00,WeatherDisplay:10.34,2013-03-26 19:29:00,
2013-03-26 15:34:00,44.8,13.6,29.83,North,0,3.0,6.0,28,0.00,CLR,CLR,0.00,WeatherDisplay:10.34,2013-03-26 19:34:00,
2013-03-26 15:39:00,44.8,13.6,29.83,North,351,0.0,3.0,28,0.00,CLR,CLR,0.00,WeatherDisplay:10.34,2013-03-26 19:39:00,
2013-03-26 15:44:00,44.8,14.4,29.83,NNE,25,0.0,7.0,29,0.00,CLR,CLR,0.00,WeatherDisplay:10.34,2013-03-26 19:44:00,
2013-03-26 15:49:00,45.1,14.7,29.83,ESE,109,4.0,8.0,29,0.00,CLR,CLR,0.00,WeatherDisplay:10.34,2013-03-26 19:49:00,
2013-03-26 15:54:00,45.1,14.7,29.83,NNE,13,6.0,10.0,29,0.00,CLR,CLR,0.00,WeatherDisplay:10.34,2013-03-26 19:54:00,
2013-03-26 15:59:00,45.0,14.6,29.83,NNE,25,0.0,3.0,29,0.00,CLR,CLR,0.00,WeatherDisplay:10.34,2013-03-26 19:59:00,
2013-03-26 16:04:00,44.8,14.4,29.83,ENE,73,5.0,8.0,29,0.00,CLR,CLR,0.00,WeatherDisplay:10.34,2013-03-26 20:04:00,
2013-03-26 16:09:00,44.6,13.5,29.83,NW,319,3.0,7.0,28,0.00,CLR,CLR,0.00,WeatherDisplay:10.34,2013-03-26 20:09:00,
2013-03-26 16:14:00,44.8,13.6,29.83,East,101,4.0,7.0,28,0.00,CLR,CLR,0.00,WeatherDisplay:10.34,2013-03-26 20:14:00,
2013-03-26 16:20:00,44.8,14.4,29.83,NW,313,5.0,14.0,29,0.00,CLR,CLR,0.00,WeatherDisplay:10.34,2013-03-26 20:20:00,
2013-03-26 16:25:00,44.6,13.5,29.83,ENE,75,5.0,9.0,28,0.00,CLR,CLR,0.00,WeatherDisplay:10.34,2013-03-26 20:25:00,
2013-03-26 16:30:00,44.2,13.9,29.83,NE,43,0.0,6.0,29,0.00,CLR,CLR,0.00,WeatherDisplay:10.34,2013-03-26 20:30:00,
2013-03-26 16:35:00,44.1,13.8,29.83,North,11,4.0,6.0,29,0.00,CLR,CLR,0.00,WeatherDisplay:10.34,2013-03-26 20:35:00,
2013-03-26 16:40:00,44.6,14.3,29.83,North,10,4.0,6.0,29,0.00,CLR,CLR,0.00,WeatherDisplay:10.34,2013-03-26 20:40:00,
2013-03-26 16:45:00,44.6,13.5,29.83,NNW,344,6.0,9.0,28,0.00,CLR,CLR,0.00,WeatherDisplay:10.34,2013-03-26 20:45:00,
2013-03-26 16:50:00,44.4,14.1,29.83,NW,316,4.0,6.0,29,0.00,CLR,CLR,0.00,WeatherDisplay:10.34,2013-03-26 20:50:00,
2013-03-26 16:55:00,44.2,13.1,29.83,NNE,27,8.0,8.0,28,0.00,CLR,CLR,0.00,WeatherDisplay:10.34,2013-03-26 20:55:00,
2013-03-26 17:00:00,44.1,13.8,29.83,ENE,61,7.0,9.0,29,0.00,CLR,CLR,0.00,WeatherDisplay:10.34,2013-03-26 21:00:00,
2013-03-26 17:05:00,43.9,12.8,29.83,NE,53,6.0,14.0,28,0.00,CLR,CLR,0.00,WeatherDisplay:10.34,2013-03-26 21:05:00,
2013-03-26 17:10:00,43.9,12.8,29.83,NNE,23,5.0,14.0,28,0.00,CLR,CLR,0.00,WeatherDisplay:10.34,2013-03-26 21:10:00,
2013-03-26 17:15:00,43.9,12.8,29.83,NNW,347,9.0,15.0,28,0.00,CLR,CLR,0.00,WeatherDisplay:10.34,2013-03-26 21:15:00,
2013-03-26 17:20:00,43.9,13.6,29.83,North,9,8.0,13.0,29,0.00,CLR,CLR,0.00,WeatherDisplay:10.34,2013-03-26 21:20:00,
2013-03-26 17:25:00,43.9,12.8,29.83,ENE,74,4.0,10.0,28,0.00,CLR,CLR,0.00,WeatherDisplay:10.34,2013-03-26 21:25:00,
2013-03-26 17:30:00,43.9,12.8,29.83,East,88,10.0,14.0,28,0.00,CLR,CLR,0.00,WeatherDisplay:10.34,2013-03-26 21:30:00,
2013-03-26 17:35:00,43.7,12.7,29.83,East,83,0.0,6.0,28,0.00,CLR,CLR,0.00,WeatherDisplay:10.34,2013-03-26 21:35:00,
2013-03-26 17:40:00,43.5,13.3,29.83,East,83,0.0,2.0,29,0.00,CLR,CLR,0.00,WeatherDisplay:10.34,2013-03-26 21:40:00,
2013-03-26 17:45:00,43.3,13.2,29.83,NNW,341,3.0,8.0,29,0.00,CLR,CLR,0.00,WeatherDisplay:10.34,2013-03-26 21:45:00,
2013-03-26 17:52:00,42.8,12.7,29.83,NNE,28,6.0,13.0,29,0.00,CLR,CLR,0.00,WeatherDisplay:10.34,2013-03-26 21:52:00,
2013-03-26 17:57:00,42.6,12.5,29.83,North,7,4.0,6.0,29,0.00,CLR,CLR,0.00,WeatherDisplay:10.34,2013-03-26 21:57:00,
2013-03-26 18:02:00,42.4,12.4,29.86,North,351,0.0,2.0,29,0.00,CLR,CLR,0.00,WeatherDisplay:10.34,2013-03-26 22:02:00,
2013-03-26 18:07:00,42.3,12.2,29.86,NNE,33,0.0,6.0,29,0.00,CLR,CLR,0.00,WeatherDisplay:10.34,2013-03-26 22:07:00,
2013-03-26 18:12:00,42.1,12.1,29.86,NNE,33,0.0,0.0,29,0.00,CLR,CLR,0.00,WeatherDisplay:10.34,2013-03-26 22:12:00,
2013-03-26 18:17:00,41.7,12.5,29.86,NNE,25,8.0,14.0,30,0.00,CLR,CLR,0.00,WeatherDisplay:10.34,2013-03-26 22:17:00,
2013-03-26 18:22:00,41.7,12.5,29.86,NNW,335,0.0,6.0,30,0.00,CLR,CLR,0.00,WeatherDisplay:10.34,2013-03-26 22:22:00,
2013-03-26 18:28:00,41.4,12.2,29.86,NNW,336,0.0,0.0,30,0.00,CLR,CLR,0.00,WeatherDisplay:10.34,2013-03-26 22:28:00,
2013-03-26 18:33:00,41.2,12.0,29.86,NNW,336,3.0,3.0,30,0.00,CLR,CLR,0.00,WeatherDisplay:10.34,2013-03-26 22:33:00,
2013-03-26 18:38:00,40.8,11.7,29.86,ENE,75,3.0,7.0,30,0.00,CLR,CLR,0.00,WeatherDisplay:10.34,2013-03-26 22:38:00,
2013-03-26 18:43:00,40.6,11.6,29.86,West,262,0.0,8.0,30,0.00,CLR,CLR,0.00,WeatherDisplay:10.34,2013-03-26 22:43:00,
2013-03-26 18:48:00,40.5,12.2,29.86,West,263,0.0,2.0,31,0.00,CLR,CLR,0.00,WeatherDisplay:10.34,2013-03-26 22:48:00,
2013-03-26 18:53:00,40.3,12.0,29.87,NNE,20,3.0,3.0,31,0.00,CLR,CLR,0.00,WeatherDisplay:10.34,2013-03-26 22:53:00,
2013-03-26 18:58:00,40.1,11.8,29.87,NNE,13,0.0,0.0,31,0.00,CLR,CLR,0.00,WeatherDisplay:10.34,2013-03-26 22:58:00,
2013-03-26 19:03:00,39.9,11.7,29.87,NNW,344,0.0,3.0,31,0.00,CLR,CLR,0.00,WeatherDisplay:10.34,2013-03-26 23:03:00,
2013-03-26 19:09:00,39.7,11.5,29.87,WSW,251,0.0,3.0,31,0.00,CLR,CLR,0.00,WeatherDisplay:10.34,2013-03-26 23:09:00,
2013-03-26 19:14:00,39.6,11.4,29.87,South,178,4.0,7.0,31,0.00,CLR,CLR,0.00,WeatherDisplay:10.34,2013-03-26 23:14:00,
2013-03-26 19:19:00,39.4,11.9,29.90,North,3,0.0,2.0,32,0.00,CLR,CLR,0.00,WeatherDisplay:10.34,2013-03-26 23:19:00,
2013-03-26 19:25:00,39.2,11.8,29.90,North,9,3.0,8.0,32,0.00,CLR,CLR,0.00,WeatherDisplay:10.34,2013-03-26 23:25:00,
2013-03-26 19:30:00,39.0,11.6,29.90,North,8,0.0,0.0,32,0.00,CLR,CLR,0.00,WeatherDisplay:10.34,2013-03-26 23:30:00,
2013-03-26 19:35:00,38.7,11.3,29.90,North,9,0.0,3.0,32,0.00,CLR,CLR,0.00,WeatherDisplay:10.34,2013-03-26 23:35:00,
2013-03-26 19:40:00,38.5,11.8,29.90,North,4,0.0,0.0,33,0.00,CLR,CLR,0.00,WeatherDisplay:10.34,2013-03-26 23:40:00,
2013-03-26 19:45:00,38.3,11.7,29.90,NE,46,0.0,5.0,33,0.00,CLR,CLR,0.00,WeatherDisplay:10.34,2013-03-26 23:45:00,
2013-03-26 19:50:00,38.3,12.3,29.90,North,356,0.0,9.0,34,0.00,CLR,CLR,0.00,WeatherDisplay:10.34,2013-03-26 23:50:00,
2013-03-26 19:55:00,38.1,12.8,29.90,NNW,339,3.0,6.0,35,0.00,CLR,CLR,0.00,WeatherDisplay:10.34,2013-03-26 23:55:00,
2013-03-26 20:00:00,38.1,12.8,29.90,NNW,339,4.0,9.0,35,0.00,CLR,CLR,0.00,WeatherDisplay:10.34,2013-03-27 00:00:00,
2013-03-26 20:05:00,38.1,13.5,29.90,NNW,339,0.0,0.0,36,0.00,FEW,FEW,0.00,WeatherDisplay:10.34,2013-03-27 00:05:00,
2013-03-26 20:10:00,37.8,13.2,29.90,NNW,338,0.0,0.0,36,0.00,FEW,FEW,0.00,WeatherDisplay:10.34,2013-03-27 00:10:00,
2013-03-26 20:15:00,37.6,13.6,29.93,NNW,340,3.0,3.0,37,0.00,FEW,FEW,0.00,WeatherDisplay:10.34,2013-03-27 00:15:00,
2013-03-26 20:20:00,37.4,13.5,29.93,NNW,340,0.0,3.0,37,0.00,FEW,FEW,0.00,WeatherDisplay:10.34,2013-03-27 00:20:00,
2013-03-26 20:25:00,37.4,14.1,29.93,NNW,340,0.0,0.0,38,0.00,FEW,FEW,0.00,WeatherDisplay:10.34,2013-03-27 00:25:00,
2013-03-26 20:30:00,37.2,13.9,29.93,NNW,340,0.0,0.0,38,0.00,FEW,FEW,0.00,WeatherDisplay:10.34,2013-03-27 00:30:00,
2013-03-26 20:35:00,37.0,14.3,29.93,NNW,340,0.0,0.0,39,0.00,FEW,FEW,0.00,WeatherDisplay:10.34,2013-03-27 00:35:00,
2013-03-26 20:40:00,36.7,14.0,29.93,NNW,340,0.0,0.0,39,0.00,FEW,FEW,0.00,WeatherDisplay:10.34,2013-03-27 00:40:00,
2013-03-26 20:45:00,36.5,14.4,29.93,NNW,340,0.0,0.0,40,0.00,FEW,FEW,0.00,WeatherDisplay:10.34,2013-03-27 00:45:00,
2013-03-26 20:50:00,36.3,14.3,29.93,NNW,340,0.0,0.0,40,0.00,FEW,FEW,0.00,WeatherDisplay:10.34,2013-03-27 00:50:00,
2013-03-26 20:55:00,36.0,14.5,29.93,North,356,0.0,12.0,41,0.00,FEW,FEW,0.00,WeatherDisplay:10.34,2013-03-27 00:55:00,
2013-03-26 21:00:00,35.8,14.9,29.93,North,356,0.0,2.0,42,0.00,FEW,FEW,0.00,WeatherDisplay:10.34,2013-03-27 01:00:00,
2013-03-26 21:05:00,35.6,14.7,29.93,North,356,3.0,5.0,42,0.00,CLR,CLR,0.00,WeatherDisplay:10.34,2013-03-27 01:05:00,
2013-03-26 21:10:00,35.6,14.7,29.93,North,356,0.0,3.0,42,0.00,CLR,CLR,0.00,WeatherDisplay:10.34,2013-03-27 01:10:00,
2013-03-26 21:15:00,35.4,15.1,29.93,North,356,0.0,0.0,43,0.00,CLR,CLR,0.00,WeatherDisplay:10.34,2013-03-27 01:15:00,
2013-03-26 21:20:00,35.2,14.9,29.93,North,356,0.0,0.0,43,0.00,CLR,CLR,0.00,WeatherDisplay:10.34,2013-03-27 01:20:00,
2013-03-26 21:25:00,35.2,15.5,29.93,North,356,0.0,0.0,44,0.00,CLR,CLR,0.00,WeatherDisplay:10.34,2013-03-27 01:25:00,
2013-03-26 21:30:00,35.2,15.5,29.93,North,356,0.0,0.0,44,0.00,CLR,CLR,0.00,WeatherDisplay:10.34,2013-03-27 01:30:00,
2013-03-26 21:35:00,35.2,15.5,29.93,North,356,0.0,0.0,44,0.00,CLR,CLR,0.00,WeatherDisplay:10.34,2013-03-27 01:35:00,
2013-03-26 21:40:00,35.2,15.5,29.93,North,356,0.0,0.0,44,0.00,CLR,CLR,0.00,WeatherDisplay:10.34,2013-03-27 01:40:00,
2013-03-26 21:45:00,35.2,15.5,29.93,North,356,0.0,6.0,44,0.00,CLR,CLR,0.00,WeatherDisplay:10.34,2013-03-27 01:45:00,
2013-03-26 21:50:00,35.1,15.3,29.93,North,356,0.0,7.0,44,0.00,CLR,CLR,0.00,WeatherDisplay:10.34,2013-03-27 01:50:00,
2013-03-26 21:55:00,35.1,15.8,29.93,North,356,3.0,8.0,45,0.00,CLR,CLR,0.00,WeatherDisplay:10.34,2013-03-27 01:55:00,
2013-03-26 22:00:00,34.9,15.7,29.93,North,351,4.0,9.0,45,0.00,CLR,CLR,0.00,WeatherDisplay:10.34,2013-03-27 02:00:00,
2013-03-26 22:05:00,34.7,16.0,29.93,North,5,0.0,0.0,46,0.00,CLR,CLR,0.00,WeatherDisplay:10.34,2013-03-27 02:05:00,
2013-03-26 22:10:00,34.9,16.2,29.93,North,351,3.0,7.0,46,0.00,CLR,CLR,0.00,WeatherDisplay:10.34,2013-03-27 02:10:00,
2013-03-26 22:15:00,34.5,15.8,29.93,NNE,16,8.0,13.0,46,0.00,CLR,CLR,0.00,WeatherDisplay:10.34,2013-03-27 02:15:00,
2013-03-26 22:20:00,34.5,15.8,29.93,NNW,343,3.0,8.0,46,0.00,CLR,CLR,0.00,WeatherDisplay:10.34,2013-03-27 02:20:00,
2013-03-26 22:25:00,34.3,15.7,29.93,NNW,335,0.0,6.0,46,0.00,CLR,CLR,0.00,WeatherDisplay:10.34,2013-03-27 02:25:00,
2013-03-26 22:30:00,34.3,15.7,29.93,North,11,0.0,3.0,46,0.00,CLR,CLR,0.00,WeatherDisplay:10.34,2013-03-27 02:30:00,
2013-03-26 22:35:00,34.3,15.7,29.93,North,351,3.0,6.0,46,0.00,CLR,CLR,0.00,WeatherDisplay:10.34,2013-03-27 02:35:00,
2013-03-26 22:40:00,34.5,15.8,29.93,NNW,340,3.0,6.0,46,0.00,CLR,CLR,0.00,WeatherDisplay:10.34,2013-03-27 02:40:00,
2013-03-26 22:45:00,34.5,16.3,29.93,North,351,0.0,6.0,47,0.00,CLR,CLR,0.00,WeatherDisplay:10.34,2013-03-27 02:45:00,
2013-03-26 22:50:00,34.5,15.8,29.93,North,351,0.0,3.0,46,0.00,CLR,CLR,0.00,WeatherDisplay:10.34,2013-03-27 02:50:00,
2013-03-26 22:55:00,34.9,15.7,29.92,North,11,0.0,2.0,45,0.00,CLR,CLR,0.00,WeatherDisplay:10.34,2013-03-27 02:55:00,
2013-03-26 23:00:00,34.9,15.1,29.92,North,1,3.0,3.0,44,0.00,CLR,CLR,0.00,WeatherDisplay:10.34,2013-03-27 03:00:00,
2013-03-26 23:05:00,35.1,14.8,29.92,North,1,0.0,0.0,43,0.00,CLR,CLR,0.00,WeatherDisplay:10.34,2013-03-27 03:05:00,
2013-03-26 23:10:00,35.1,14.8,29.92,North,1,0.0,2.0,43,0.00,CLR,CLR,0.00,WeatherDisplay:10.34,2013-03-27 03:10:00,
2013-03-26 23:15:00,34.9,14.6,29.92,North,1,0.0,0.0,43,0.00,CLR,CLR,0.00,WeatherDisplay:10.34,2013-03-27 03:15:00,
2013-03-26 23:20:00,34.7,15.0,29.92,North,1,0.0,2.0,44,0.00,CLR,CLR,0.00,WeatherDisplay:10.34,2013-03-27 03:20:00,
2013-03-26 23:25:00,34.3,15.2,29.92,North,1,0.0,0.0,45,0.00,CLR,CLR,0.00,WeatherDisplay:10.34,2013-03-27 03:25:00,
2013-03-26 23:30:00,34.2,15.0,29.92,North,0,0.0,7.0,45,0.00,CLR,CLR,0.00,WeatherDisplay:10.34,2013-03-27 03:30:00,
2013-03-26 23:35:00,34.0,15.3,29.92,North,0,0.0,2.0,46,0.00,CLR,CLR,0.00,WeatherDisplay:10.34,2013-03-27 03:35:00,
2013-03-26 23:40:00,33.8,15.2,29.92,North,351,0.0,9.0,46,0.00,CLR,CLR,0.00,WeatherDisplay:10.34,2013-03-27 03:40:00,
2013-03-26 23:46:00,33.8,15.7,29.92,North,351,4.0,7.0,47,0.00,CLR,CLR,0.00,WeatherDisplay:10.34,2013-03-27 03:46:00,
2013-03-26 23:51:00,33.8,16.2,29.92,North,351,0.0,0.0,48,0.00,CLR,CLR,0.00,WeatherDisplay:10.34,2013-03-27 03:51:00,
2013-03-26 23:56:00,33.8,15.7,29.92,North,351,0.0,0.0,47,0.00,CLR,CLR,0.00,WeatherDisplay:10.34,2013-03-27 03:56:00,